createdAt,value
2022-11-29T00:09:27.444Z,65.59
2022-11-29T00:19:29.240Z,65.57
2022-11-29T00:29:30.909Z,65.47
2022-11-29T00:39:32.345Z,65.74
2022-11-29T00:49:33.979Z,66.07
2022-11-29T00:59:35.408Z,65.78
2022-11-29T01:09:36.848Z,65.87
2022-11-29T01:19:38.886Z,66.77
2022-11-29T01:29:40.431Z,66.68
2022-11-29T01:39:42.681Z,66.38
2022-11-29T01:49:46.759Z,66.56
2022-11-29T01:59:52.234Z,66.70
2022-11-29T02:09:53.717Z,66.78
2022-11-29T02:20:17.506Z,66.80
2022-11-29T02:30:57.585Z,66.70
2022-11-29T02:41:04.877Z,66.60
2022-11-29T02:51:09.336Z,67.08
2022-11-29T03:01:18.344Z,67.35
2022-11-29T03:11:31.989Z,67.48
2022-11-29T03:22:16.164Z,67.54
2022-11-29T03:32:33.977Z,67.39
2022-11-29T03:42:45.372Z,67.40
2022-11-29T03:52:53.918Z,67.45
2022-11-29T04:03:17.145Z,67.97
2022-11-29T04:13:30.868Z,67.56
2022-11-29T04:24:08.883Z,67.68
2022-11-29T04:34:28.661Z,67.79
2022-11-29T04:44:36.223Z,68.63
2022-11-29T04:54:49.911Z,68.04
2022-11-29T05:05:11.571Z,67.88
2022-11-29T05:15:59.674Z,67.97
2022-11-29T05:26:09.317Z,67.79
2022-11-29T05:36:43.339Z,67.38
2022-11-29T05:46:56.869Z,67.93
2022-11-29T05:57:26.872Z,67.67
2022-11-29T06:08:01.124Z,67.80
2022-11-29T06:18:44.783Z,67.48
2022-11-29T06:29:25.379Z,68.07
2022-11-29T06:39:27.165Z,67.86
2022-11-29T06:49:54.093Z,67.93
2022-11-29T07:00:11.631Z,67.79
2022-11-29T07:10:18.181Z,68.11
2022-11-29T07:20:44.574Z,68.52
2022-11-29T07:30:57.434Z,67.69
2022-11-29T07:41:20.477Z,68.23
2022-11-29T07:51:22.092Z,67.86
2022-11-29T08:01:23.676Z,67.45
2022-11-29T08:11:26.540Z,67.52
2022-11-29T08:21:28.176Z,67.69
2022-11-29T08:31:29.660Z,67.21
2022-11-29T08:41:31.168Z,67.21
2022-11-29T08:51:32.618Z,66.44
2022-11-29T09:01:34.286Z,66.44
2022-11-29T09:11:36.953Z,66.04
2022-11-29T09:21:38.409Z,66.27
2022-11-29T09:31:40.133Z,65.67
2022-11-29T09:41:50.414Z,65.16
2022-11-29T09:52:19.585Z,64.43
2022-11-29T10:02:42.127Z,64.23
2022-11-29T10:12:52.395Z,63.83
2022-11-29T10:23:03.052Z,63.50
2022-11-29T10:33:25.400Z,63.02
2022-11-29T10:43:26.941Z,63.64
2022-11-29T10:53:35.989Z,62.66
2022-11-29T11:03:41.272Z,62.45
2022-11-29T11:13:42.824Z,62.72
2022-11-29T11:24:01.791Z,62.58
2022-11-29T11:34:36.598Z,62.67
2022-11-29T11:44:49.336Z,63.26
2022-11-29T11:54:57.107Z,62.89
2022-11-29T12:05:02.725Z,62.72
2022-11-29T12:15:16.208Z,62.78
2022-11-29T12:25:23.315Z,63.00
2022-11-29T12:35:46.251Z,62.78
2022-11-29T12:46:12.822Z,61.96
2022-11-29T12:56:36.160Z,62.94
2022-11-29T13:07:02.515Z,62.91
2022-11-29T13:17:12.206Z,62.70
2022-11-29T13:27:19.385Z,62.81
2022-11-29T13:37:30.673Z,63.17
2022-11-29T13:47:32.187Z,64.20
2022-11-29T13:58:15.403Z,64.48
2022-11-29T14:08:54.500Z,63.52
2022-11-29T14:19:31.631Z,64.16
2022-11-29T14:30:24.587Z,64.02
2022-11-29T14:40:33.471Z,65.16
2022-11-29T14:50:37.967Z,65.75
2022-11-29T15:01:01.779Z,65.74
2022-11-29T15:11:51.153Z,65.20
2022-11-29T15:22:16.723Z,65.49
2022-11-29T15:32:25.854Z,66.47
2022-11-29T15:42:32.456Z,66.31
2022-11-29T15:52:38.318Z,65.85
2022-11-29T16:02:47.761Z,66.56
2022-11-29T16:12:54.909Z,66.71
2022-11-29T16:23:13.472Z,67.09
2022-11-29T16:33:21.279Z,66.57
2022-11-29T16:43:48.304Z,67.05
2022-11-29T16:53:54.098Z,66.78
2022-11-29T17:03:59.978Z,67.07
2022-11-29T17:14:01.460Z,67.09
2022-11-29T17:24:02.994Z,68.02
2022-11-29T17:34:05.069Z,67.26
2022-11-29T17:44:06.492Z,67.94
2022-11-29T17:54:08.336Z,67.58
2022-11-29T18:04:09.799Z,67.08
2022-11-29T18:14:12.787Z,66.87
2022-11-29T18:24:14.315Z,66.54
2022-11-29T18:34:15.911Z,66.74
2022-11-29T18:44:20.165Z,67.31
2022-11-29T18:54:21.756Z,67.24
2022-11-29T19:04:23.250Z,67.14
2022-11-29T19:14:24.759Z,67.03
2022-11-29T19:24:26.175Z,66.22
2022-11-29T19:34:27.592Z,66.14
2022-11-29T19:44:30.211Z,66.15
2022-11-29T19:54:32.901Z,65.97
2022-11-29T20:04:34.440Z,66.30
2022-11-29T20:14:35.993Z,66.19
2022-11-29T20:24:42.612Z,66.22
2022-11-29T20:34:47.086Z,66.00
2022-11-29T20:44:58.674Z,65.87
2022-11-29T20:55:00.179Z,65.88
2022-11-29T21:05:01.654Z,66.20
2022-11-29T21:15:04.440Z,66.16
2022-11-29T21:25:25.416Z,65.87
2022-11-29T21:35:26.864Z,66.77
2022-11-29T21:45:28.595Z,66.46
2022-11-29T21:55:32.013Z,67.31
2022-11-29T22:05:34.005Z,66.44
2022-11-29T22:15:35.456Z,66.85
2022-11-29T22:25:36.904Z,66.51
2022-11-29T22:35:44.599Z,65.99
2022-11-29T22:45:46.044Z,66.19
2022-11-29T22:55:47.477Z,65.75
2022-11-29T23:05:48.906Z,65.32
2022-11-29T23:15:51.971Z,65.13
2022-11-29T23:25:53.416Z,65.27
2022-11-29T23:36:06.729Z,64.85
2022-11-29T23:46:14.823Z,64.57
2022-11-29T23:56:17.978Z,64.01
